Time;durP1;ratioP1;P1;durP2;ratioP2;P2;SDS_P1;SDS_P2;PMS_P1;PMS_P2;Temp;Humidity;BMP_temperature;BMP_pressure;BME280_temperature;BME280_humidity;BME280_pressure;Samples;Min_cycle;Max_cycle;Signal;HPM_P1;HPM_P2
2023/06/27 00:01:43;;;;;;;5.88;1.60;;;19.70;69.30;;;;;;5052606;28;20037;-83
2023/06/27 00:04:10;;;;;;;3.72;1.20;;;19.60;69.80;;;;;;5052957;28;20048;-82
2023/06/27 00:06:40;;;;;;;4.38;1.20;;;19.60;69.90;;;;;;5051723;28;20033;-84
2023/06/27 00:09:10;;;;;;;3.65;1.33;;;19.50;69.90;;;;;;5054046;28;20063;-83
2023/06/27 00:11:40;;;;;;;4.13;1.30;;;19.50;70.60;;;;;;5052261;28;20410;-83
2023/06/27 00:14:08;;;;;;;4.30;1.20;;;19.40;70.80;;;;;;5053337;28;20067;-83
2023/06/27 00:16:34;;;;;;;5.10;1.30;;;19.40;71.10;;;;;;5052534;28;20407;-83
2023/06/27 00:19:02;;;;;;;4.82;1.27;;;19.30;71.30;;;;;;5053190;28;20045;-83
2023/06/27 00:21:29;;;;;;;4.95;1.45;;;19.30;71.70;;;;;;5053028;28;20053;-84
2023/06/27 00:23:59;;;;;;;4.50;1.08;;;19.30;71.80;;;;;;5054051;28;20091;-84
2023/06/27 00:26:25;;;;;;;2.53;1.10;;;19.20;71.90;;;;;;5055399;28;20049;-82
2023/06/27 00:28:51;;;;;;;4.10;1.30;;;19.20;71.90;;;;;;5068905;28;20060;-82
2023/06/27 00:31:16;;;;;;;5.63;1.42;;;19.20;71.90;;;;;;5052585;28;20036;-82
2023/06/27 00:33:42;;;;;;;3.90;1.45;;;19.20;71.80;;;;;;5052557;28;20045;-82
2023/06/27 00:36:09;;;;;;;3.55;1.30;;;19.20;71.60;;;;;;5084877;28;20052;-83
2023/06/27 00:38:35;;;;;;;3.47;1.30;;;19.10;71.50;;;;;;5052779;28;20061;-83
2023/06/27 00:41:00;;;;;;;5.03;1.30;;;19.00;71.40;;;;;;5054066;28;20041;-83
2023/06/27 00:43:29;;;;;;;4.22;1.20;;;18.80;71.50;;;;;;5052601;28;20084;-83
2023/06/27 00:45:56;;;;;;;5.38;1.40;;;18.80;72.10;;;;;;5054208;28;20108;-82
2023/06/27 00:48:22;;;;;;;4.32;1.38;;;18.70;72.20;;;;;;5053280;28;20080;-83
2023/06/27 00:50:49;;;;;;;3.75;1.17;;;18.70;72.70;;;;;;5051472;28;20092;-83
2023/06/27 00:53:14;;;;;;;4.95;1.50;;;18.60;72.90;;;;;;5084512;28;20075;-83
2023/06/27 00:55:41;;;;;;;4.90;1.40;;;18.50;73.30;;;;;;5052536;28;20041;-83
2023/06/27 00:58:10;;;;;;;4.30;1.40;;;18.50;73.70;;;;;;5052365;28;20060;-81
2023/06/27 01:00:36;;;;;;;5.18;1.30;;;18.40;73.50;;;;;;5051992;28;20095;-83
2023/06/27 01:03:03;;;;;;;3.42;1.30;;;18.40;73.60;;;;;;5054037;28;20105;-83
2023/06/27 01:05:29;;;;;;;4.68;1.50;;;18.40;73.90;;;;;;5056726;28;20077;-83
2023/06/27 01:07:57;;;;;;;4.13;1.13;;;18.30;74.40;;;;;;5056249;28;20561;-83
2023/06/27 01:10:46;;;;;;;3.92;1.30;;;18.20;74.20;;;;;;5055616;28;20448;-83
2023/06/27 01:13:23;;;;;;;3.90;1.17;;;18.20;73.70;;;;;;5040229;28;20140;-82
2023/06/27 01:15:49;;;;;;;4.07;1.35;;;18.20;74.00;;;;;;5075006;28;20041;-83
2023/06/27 01:18:16;;;;;;;4.30;1.38;;;18.10;74.50;;;;;;5039028;28;20049;-82
2023/06/27 01:20:45;;;;;;;3.78;1.33;;;18.10;75.00;;;;;;5037592;28;20511;-82
2023/06/27 01:23:54;;;;;;;3.95;1.25;;;18.10;75.00;;;;;;5049529;28;20127;-82
2023/06/27 01:26:19;;;;;;;4.72;1.60;;;18.10;74.20;;;;;;5074701;28;20040;-82
2023/06/27 01:28:46;;;;;;;3.58;1.20;;;18.00;75.20;;;;;;5061224;28;20067;-82
2023/06/27 01:31:23;;;;;;;4.47;1.52;;;18.10;75.50;;;;;;5048470;28;20106;-82
2023/06/27 01:33:54;;;;;;;3.47;1.20;;;18.00;75.70;;;;;;5088812;28;20461;-81
2023/06/27 01:36:47;;;;;;;3.88;1.27;;;18.00;75.90;;;;;;5055986;28;20041;-83
2023/06/27 01:39:21;;;;;;;6.10;1.50;;;18.00;74.60;;;;;;5054001;28;20465;-83
2023/06/27 01:41:51;;;;;;;3.88;1.23;;;18.00;75.70;;;;;;5074656;28;20068;-83
2023/06/27 01:44:19;;;;;;;5.13;1.45;;;17.90;75.90;;;;;;5062383;28;20037;-83
2023/06/27 01:46:47;;;;;;;4.65;1.38;;;17.90;76.00;;;;;;5055785;28;20075;-83
2023/06/27 01:49:14;;;;;;;3.95;1.38;;;17.90;76.00;;;;;;5055307;28;20059;-83
2023/06/27 01:51:41;;;;;;;4.90;1.27;;;17.90;76.30;;;;;;5058066;28;20049;-83
2023/06/27 01:54:07;;;;;;;3.85;1.10;;;17.90;76.00;;;;;;5055359;28;20099;-83
2023/06/27 01:56:33;;;;;;;3.75;1.40;;;17.90;76.00;;;;;;5055756;28;20073;-83
2023/06/27 01:58:58;;;;;;;5.78;1.42;;;17.80;75.70;;;;;;5054283;28;20037;-83
2023/06/27 02:01:24;;;;;;;4.25;1.38;;;17.80;75.60;;;;;;5055677;28;20124;-83
2023/06/27 02:03:50;;;;;;;3.60;1.40;;;17.80;75.90;;;;;;5055138;28;20487;-83
2023/06/27 02:06:15;;;;;;;5.13;1.35;;;17.80;76.20;;;;;;5054111;28;20080;-83
2023/06/27 02:08:43;;;;;;;4.07;1.30;;;17.80;76.20;;;;;;5054989;28;20109;-83
2023/06/27 02:11:08;;;;;;;3.72;1.40;;;17.70;76.30;;;;;;5055053;28;20152;-83
2023/06/27 02:13:36;;;;;;;3.65;1.50;;;17.70;76.40;;;;;;5055143;28;20136;-83
2023/06/27 02:16:02;;;;;;;4.13;1.33;;;17.70;76.90;;;;;;5054362;28;20041;-83
2023/06/27 02:18:28;;;;;;;4.50;1.33;;;17.70;77.00;;;;;;5055192;28;20398;-83
2023/06/27 02:20:53;;;;;;;5.28;1.40;;;17.70;77.00;;;;;;5053950;28;20041;-83
2023/06/27 02:23:19;;;;;;;3.22;1.20;;;17.60;77.30;;;;;;5054833;28;20118;-83
2023/06/27 02:25:45;;;;;;;3.95;1.45;;;17.70;77.20;;;;;;5054651;28;20483;-83
2023/06/27 02:28:10;;;;;;;4.43;1.30;;;17.70;77.00;;;;;;5054952;28;20045;-82
2023/06/27 02:30:36;;;;;;;4.88;1.23;;;17.60;77.10;;;;;;5054415;28;20043;-83
2023/06/27 02:33:02;;;;;;;4.50;1.60;;;17.60;77.20;;;;;;5054745;28;20552;-82
2023/06/27 02:35:27;;;;;;;4.07;1.35;;;17.50;77.10;;;;;;5087007;28;20049;-83
2023/06/27 02:37:53;;;;;;;4.28;1.20;;;17.50;77.00;;;;;;5060211;28;20071;-82
2023/06/27 02:40:19;;;;;;;3.03;1.33;;;17.40;76.80;;;;;;5056320;28;20040;-83
2023/06/27 02:42:44;;;;;;;4.40;1.50;;;17.40;77.20;;;;;;5053865;28;20053;-83
2023/06/27 02:45:10;;;;;;;4.70;1.35;;;17.30;77.40;;;;;;5053957;28;20071;-83
2023/06/27 02:47:36;;;;;;;4.97;1.50;;;17.20;77.10;;;;;;5053574;28;20479;-82
2023/06/27 02:50:02;;;;;;;3.63;1.33;;;17.20;77.20;;;;;;5053589;28;20060;-83
2023/06/27 02:52:28;;;;;;;4.22;1.40;;;17.20;77.30;;;;;;5069988;28;20056;-83
2023/06/27 02:54:54;;;;;;;4.85;1.50;;;17.10;77.20;;;;;;5054101;28;20037;-83
2023/06/27 02:57:20;;;;;;;3.58;1.40;;;17.00;77.70;;;;;;5053794;28;20048;-83
2023/06/27 02:59:46;;;;;;;4.55;1.60;;;17.00;78.20;;;;;;5067225;28;20044;-83
2023/06/27 03:02:12;;;;;;;3.55;1.30;;;16.90;78.70;;;;;;5055662;28;20045;-83
2023/06/27 03:04:38;;;;;;;4.95;1.40;;;16.90;78.00;;;;;;5069092;28;20486;-83
2023/06/27 03:07:04;;;;;;;4.68;1.40;;;16.80;77.80;;;;;;5054015;28;20048;-82
2023/06/27 03:09:30;;;;;;;3.58;1.60;;;16.80;78.20;;;;;;5054089;28;20048;-83
2023/06/27 03:11:55;;;;;;;4.22;1.50;;;16.80;78.20;;;;;;5069133;28;20551;-83
2023/06/27 03:14:21;;;;;;;5.85;1.70;;;16.70;78.80;;;;;;5054133;28;20128;-82
2023/06/27 03:16:47;;;;;;;3.85;1.30;;;16.70;79.20;;;;;;5053283;28;20048;-82
2023/06/27 03:19:12;;;;;;;4.40;1.50;;;16.70;78.80;;;;;;5086588;28;20079;-82
2023/06/27 03:21:38;;;;;;;5.82;2.03;;;16.70;79.10;;;;;;5054239;28;20036;-83
2023/06/27 03:24:04;;;;;;;4.05;1.40;;;16.70;79.70;;;;;;5054354;28;20422;-82
2023/06/27 03:26:30;;;;;;;5.50;1.83;;;16.60;79.80;;;;;;5053986;28;20084;-82
2023/06/27 03:28:56;;;;;;;5.28;2.00;;;16.60;79.80;;;;;;5053987;28;20068;-82
2023/06/27 03:31:22;;;;;;;4.60;1.70;;;16.60;79.50;;;;;;5053249;28;20388;-83
2023/06/27 03:33:48;;;;;;;5.45;1.67;;;16.50;80.10;;;;;;5051791;28;20051;-83
2023/06/27 03:36:13;;;;;;;4.70;1.70;;;16.60;81.20;;;;;;5053122;28;20040;-83
2023/06/27 03:38:39;;;;;;;4.57;1.50;;;16.60;80.50;;;;;;5052650;28;20083;-83
2023/06/27 03:41:05;;;;;;;4.07;1.55;;;16.60;80.60;;;;;;5053751;28;20049;-85
2023/06/27 03:43:30;;;;;;;5.65;1.70;;;16.50;80.20;;;;;;5052275;28;20178;-83
2023/06/27 03:45:56;;;;;;;5.28;1.60;;;16.50;80.60;;;;;;5058649;28;20566;-83
2023/06/27 03:48:22;;;;;;;3.05;1.48;;;16.60;80.20;;;;;;5051667;28;20180;-84
2023/06/27 03:50:47;;;;;;;4.43;1.90;;;16.50;79.60;;;;;;5052058;28;20052;-83
2023/06/27 03:53:13;;;;;;;6.15;1.80;;;16.50;80.00;;;;;;5034292;28;20071;-83
2023/06/27 03:55:40;;;;;;;6.25;1.95;;;16.50;80.50;;;;;;5052953;28;20037;-83
2023/06/27 03:58:06;;;;;;;5.60;1.90;;;16.50;81.10;;;;;;5085392;28;20364;-83
2023/06/27 04:00:32;;;;;;;3.70;1.63;;;16.50;80.70;;;;;;5052720;28;20495;-84
2023/06/27 04:02:58;;;;;;;4.55;1.80;;;16.50;80.50;;;;;;5050510;28;20120;-83
2023/06/27 04:05:24;;;;;;;5.05;1.90;;;16.50;80.70;;;;;;5048884;28;20037;-84
2023/06/27 04:07:49;;;;;;;4.80;1.60;;;16.40;80.70;;;;;;5070682;28;20098;-83
2023/06/27 04:10:15;;;;;;;4.55;1.60;;;16.50;81.00;;;;;;5073982;28;20075;-83
2023/06/27 04:12:41;;;;;;;5.45;1.90;;;16.50;81.00;;;;;;5073302;28;20048;-84
2023/06/27 04:15:07;;;;;;;4.43;1.80;;;16.40;81.30;;;;;;5072188;28;20110;-84
2023/06/27 04:17:33;;;;;;;4.22;1.80;;;16.40;81.40;;;;;;5059625;28;20090;-84
2023/06/27 04:19:59;;;;;;;5.55;1.80;;;16.40;81.40;;;;;;5058656;28;20044;-86
2023/06/27 04:22:24;;;;;;;4.40;1.75;;;16.40;81.40;;;;;;5054041;28;20052;-86
2023/06/27 04:24:50;;;;;;;4.90;2.00;;;16.40;81.60;;;;;;5054639;28;20442;-85
2023/06/27 04:27:16;;;;;;;5.50;2.00;;;16.40;81.40;;;;;;5062200;28;20055;-85
2023/06/27 04:29:41;;;;;;;3.47;1.65;;;16.40;81.60;;;;;;5053187;28;20045;-85
2023/06/27 04:32:08;;;;;;;4.45;1.98;;;16.40;81.00;;;;;;5053294;28;20045;-83
2023/06/27 04:34:36;;;;;;;6.50;2.00;;;16.30;79.70;;;;;;5051915;28;20057;-83
2023/06/27 04:37:04;;;;;;;5.15;2.00;;;16.30;80.00;;;;;;5052953;28;20388;-83
2023/06/27 04:39:29;;;;;;;6.88;2.35;;;16.30;80.40;;;;;;5052077;28;20060;-83
2023/06/27 04:41:56;;;;;;;4.63;1.95;;;16.20;80.60;;;;;;5054103;28;20037;-83
2023/06/27 04:44:22;;;;;;;5.45;1.92;;;16.20;81.00;;;;;;5061531;28;20092;-83
2023/06/27 04:46:48;;;;;;;6.00;2.03;;;16.20;80.70;;;;;;5073150;28;20546;-83
2023/06/27 04:49:14;;;;;;;4.75;2.03;;;16.20;81.00;;;;;;5071759;28;20052;-83
2023/06/27 04:51:40;;;;;;;4.65;2.15;;;16.10;80.60;;;;;;5073940;28;20056;-83
2023/06/27 04:54:05;;;;;;;5.05;2.10;;;16.20;80.10;;;;;;5076603;28;20088;-82
2023/06/27 04:56:33;;;;;;;3.88;1.67;;;16.10;80.50;;;;;;5075343;28;20056;-82
2023/06/27 04:58:59;;;;;;;7.38;2.70;;;16.20;79.80;;;;;;5075088;28;20043;-82
2023/06/27 05:01:25;;;;;;;6.25;2.42;;;16.20;81.60;;;;;;5076601;28;20074;-83
2023/06/27 05:03:52;;;;;;;11.48;3.03;;;16.20;81.60;;;;;;5074511;28;20040;-83
2023/06/27 05:06:18;;;;;;;5.35;2.28;;;16.20;84.10;;;;;;5078239;28;20132;-83
2023/06/27 05:08:44;;;;;;;6.53;2.50;;;16.20;82.80;;;;;;5075242;28;20080;-83
2023/06/27 05:11:10;;;;;;;7.30;2.95;;;16.10;82.00;;;;;;5074516;28;20051;-82
2023/06/27 05:13:36;;;;;;;9.43;3.30;;;16.10;82.80;;;;;;5036061;28;20042;-83
2023/06/27 05:16:01;;;;;;;5.55;2.20;;;16.10;84.40;;;;;;5036373;28;20041;-83
2023/06/27 05:18:27;;;;;;;5.05;1.95;;;16.10;83.10;;;;;;5051656;28;20122;-83
2023/06/27 05:20:54;;;;;;;7.00;2.58;;;16.10;81.60;;;;;;5036128;28;20045;-82
2023/06/27 05:23:21;;;;;;;7.40;3.22;;;16.10;81.70;;;;;;5036350;28;20053;-83
2023/06/27 05:25:48;;;;;;;6.68;2.65;;;16.10;85.20;;;;;;5035244;28;20053;-83
2023/06/27 05:28:13;;;;;;;5.95;2.58;;;16.10;85.90;;;;;;5057081;28;20041;-83
2023/06/27 05:30:39;;;;;;;8.10;2.60;;;16.20;85.20;;;;;;5056243;28;20056;-83
2023/06/27 05:33:05;;;;;;;9.52;3.00;;;16.20;85.30;;;;;;5056286;28;20080;-83
2023/06/27 05:35:31;;;;;;;9.15;2.72;;;16.30;88.60;;;;;;5056453;28;20094;-83
2023/06/27 05:37:58;;;;;;;7.65;2.97;;;16.30;88.30;;;;;;5055667;28;20127;-83
2023/06/27 05:40:23;;;;;;;5.50;2.55;;;16.30;89.20;;;;;;5070982;28;20162;-83
2023/06/27 05:42:49;;;;;;;8.88;2.60;;;16.40;88.10;;;;;;5054649;28;20499;-83
2023/06/27 05:45:14;;;;;;;5.80;2.17;;;16.40;89.10;;;;;;5056639;28;20495;-83
2023/06/27 05:47:42;;;;;;;11.68;3.13;;;16.40;86.90;;;;;;5055231;28;20052;-82
2023/06/27 05:50:09;;;;;;;7.20;2.40;;;16.50;90.00;;;;;;5055616;28;20091;-83
2023/06/27 05:52:35;;;;;;;5.78;2.03;;;16.50;89.70;;;;;;5054605;28;20049;-83
2023/06/27 05:55:00;;;;;;;5.53;2.03;;;16.50;87.80;;;;;;5054701;28;20121;-83
2023/06/27 05:57:26;;;;;;;10.93;2.63;;;16.50;89.00;;;;;;5056043;28;20123;-84
2023/06/27 05:59:52;;;;;;;5.80;2.13;;;16.60;90.60;;;;;;5058215;28;20091;-84
2023/06/27 06:02:18;;;;;;;11.77;3.05;;;16.60;90.00;;;;;;5057050;28;20041;-84
2023/06/27 06:04:43;;;;;;;12.02;2.58;;;16.70;91.40;;;;;;5055604;28;20078;-84
2023/06/27 06:07:09;;;;;;;11.18;2.40;;;16.70;91.40;;;;;;5070389;28;20040;-83
2023/06/27 06:09:35;;;;;;;14.07;2.83;;;16.80;90.70;;;;;;5058971;28;20037;-83
2023/06/27 06:12:01;;;;;;;11.52;2.92;;;16.80;90.90;;;;;;5058541;28;20041;-83
2023/06/27 06:14:27;;;;;;;12.88;2.50;;;16.90;91.50;;;;;;5058985;28;20087;-84
2023/06/27 06:16:53;;;;;;;12.75;2.25;;;16.90;91.10;;;;;;5056850;28;20072;-84
2023/06/27 06:19:19;;;;;;;15.93;2.67;;;17.00;91.10;;;;;;5055831;28;20039;-82
2023/06/27 06:21:46;;;;;;;8.82;1.90;;;17.00;91.90;;;;;;5057601;28;20041;-81
2023/06/27 06:24:14;;;;;;;9.95;1.90;;;17.10;90.90;;;;;;5057618;28;20055;-82
2023/06/27 06:26:42;;;;;;;5.38;1.77;;;17.10;90.60;;;;;;5058150;28;20127;-83
2023/06/27 06:29:13;;;;;;;9.70;1.95;;;17.20;90.50;;;;;;5057471;28;20041;-82
2023/06/27 06:31:42;;;;;;;9.20;1.90;;;17.30;90.80;;;;;;5055715;28;20041;-83
2023/06/27 06:34:08;;;;;;;10.48;1.75;;;17.30;90.40;;;;;;5056499;28;20045;-82
2023/06/27 06:36:34;;;;;;;5.55;1.50;;;17.40;90.80;;;;;;5055080;28;20441;-83
2023/06/27 06:38:59;;;;;;;9.73;1.83;;;17.50;90.30;;;;;;5058895;28;20036;-83
2023/06/27 06:41:25;;;;;;;7.45;1.83;;;17.60;90.30;;;;;;5053676;28;20052;-83
2023/06/27 06:43:51;;;;;;;10.38;1.80;;;17.60;90.20;;;;;;5059588;28;20074;-83
2023/06/27 06:46:17;;;;;;;8.43;1.77;;;17.70;89.70;;;;;;5056241;28;20041;-82
2023/06/27 06:48:43;;;;;;;8.55;1.95;;;17.80;89.00;;;;;;5055666;28;20041;-82
2023/06/27 06:51:08;;;;;;;7.38;1.70;;;17.90;90.10;;;;;;5055640;28;20053;-82
2023/06/27 06:53:35;;;;;;;6.22;1.48;;;18.00;90.10;;;;;;5055771;28;20041;-83
2023/06/27 06:56:00;;;;;;;9.23;1.50;;;18.10;89.40;;;;;;5054828;28;20051;-83
2023/06/27 06:58:26;;;;;;;6.85;1.30;;;18.20;88.30;;;;;;5053099;28;20048;-82
2023/06/27 07:00:52;;;;;;;4.78;1.48;;;18.40;87.40;;;;;;5057229;28;20056;-82
2023/06/27 07:03:17;;;;;;;6.65;1.10;;;18.40;86.10;;;;;;5055837;28;20372;-82
2023/06/27 07:05:43;;;;;;;4.78;1.10;;;18.50;85.30;;;;;;5054171;28;20041;-81
2023/06/27 07:08:09;;;;;;;5.60;1.30;;;18.60;84.50;;;;;;5048339;28;20036;-82
2023/06/27 07:10:34;;;;;;;3.95;1.02;;;18.70;83.90;;;;;;5056088;28;20039;-83
2023/06/27 07:13:01;;;;;;;6.53;1.45;;;18.80;83.90;;;;;;5069330;28;20040;-82
2023/06/27 07:15:27;;;;;;;6.32;1.27;;;18.90;83.60;;;;;;5073956;28;20489;-83
2023/06/27 07:17:53;;;;;;;6.07;1.30;;;19.00;82.70;;;;;;5074964;28;20044;-83
2023/06/27 07:20:20;;;;;;;5.35;1.25;;;19.10;82.50;;;;;;5071986;28;20474;-83
2023/06/27 07:22:49;;;;;;;5.03;1.17;;;19.20;82.70;;;;;;5045258;28;20454;-83
2023/06/27 07:25:15;;;;;;;6.97;1.13;;;19.20;82.30;;;;;;5055612;28;20045;-85
2023/06/27 07:27:42;;;;;;;5.25;1.10;;;19.30;81.20;;;;;;5054022;28;20051;-85
2023/06/27 07:30:09;;;;;;;7.35;1.25;;;19.40;80.00;;;;;;5038683;28;20041;-85
2023/06/27 07:32:34;;;;;;;6.78;1.02;;;19.50;79.60;;;;;;5050387;28;20045;-83
2023/06/27 07:35:00;;;;;;;4.32;0.95;;;19.60;79.00;;;;;;5073195;28;20494;-83
2023/06/27 07:37:26;;;;;;;4.53;0.90;;;19.70;77.80;;;;;;5073626;28;20134;-83
2023/06/27 07:39:52;;;;;;;5.65;1.00;;;19.70;76.60;;;;;;5054841;28;20049;-83
2023/06/27 07:42:17;;;;;;;6.40;1.25;;;19.80;77.10;;;;;;5054348;28;20041;-82
2023/06/27 07:44:45;;;;;;;5.25;1.38;;;20.00;76.40;;;;;;5052993;28;20128;-83
2023/06/27 07:47:13;;;;;;;4.85;1.00;;;20.10;76.00;;;;;;5054257;28;20506;-82
2023/06/27 07:49:38;;;;;;;7.38;1.02;;;20.20;74.80;;;;;;5052778;28;20053;-82
2023/06/27 07:52:07;;;;;;;8.90;1.17;;;20.30;73.00;;;;;;5055447;28;20517;-83
2023/06/27 07:54:33;;;;;;;6.53;1.33;;;20.40;73.10;;;;;;5053281;28;20102;-83
2023/06/27 07:56:59;;;;;;;4.53;0.88;;;20.50;72.30;;;;;;5062724;28;20060;-83
2023/06/27 07:59:27;;;;;;;6.30;0.90;;;20.50;72.70;;;;;;5057941;28;20467;-82
2023/06/27 08:01:54;;;;;;;4.50;1.15;;;20.60;71.70;;;;;;5086620;28;20052;-83
2023/06/27 08:04:20;;;;;;;3.90;1.17;;;20.60;72.30;;;;;;5054081;28;20044;-83
2023/06/27 08:06:46;;;;;;;7.07;1.20;;;20.60;71.40;;;;;;5054369;28;20044;-83
2023/06/27 08:09:12;;;;;;;7.85;1.23;;;20.60;70.60;;;;;;5053982;28;20060;-84
2023/06/27 08:11:37;;;;;;;4.75;1.10;;;20.60;71.10;;;;;;5053815;28;20127;-81
2023/06/27 08:14:03;;;;;;;4.85;1.05;;;20.60;71.30;;;;;;5054695;28;20426;-82
2023/06/27 08:16:29;;;;;;;9.43;1.35;;;20.60;71.70;;;;;;5053954;28;20053;-82
2023/06/27 08:18:54;;;;;;;6.70;1.27;;;20.60;70.50;;;;;;5060528;28;20040;-82
2023/06/27 08:21:20;;;;;;;5.15;1.10;;;20.60;71.00;;;;;;5073751;28;20048;-81
2023/06/27 08:23:46;;;;;;;5.13;1.10;;;20.60;70.10;;;;;;5073939;28;20547;-81
2023/06/27 08:26:17;;;;;;;7.57;1.02;;;20.60;70.70;;;;;;5062152;28;20195;-81
2023/06/27 08:28:44;;;;;;;8.88;1.30;;;20.70;70.40;;;;;;5057785;28;20080;-82
2023/06/27 08:31:11;;;;;;;8.35;1.35;;;20.70;70.20;;;;;;5058723;28;20107;-82
2023/06/27 08:33:37;;;;;;;4.80;0.90;;;20.90;69.40;;;;;;5057651;28;20128;-81
2023/06/27 08:36:03;;;;;;;3.75;0.95;;;20.90;69.40;;;;;;5057909;28;20052;-82
2023/06/27 08:38:28;;;;;;;4.38;0.80;;;21.00;67.90;;;;;;5057356;28;20049;-81
2023/06/27 08:40:55;;;;;;;7.75;1.20;;;21.10;66.40;;;;;;5057579;28;20068;-81
2023/06/27 08:43:21;;;;;;;5.50;1.00;;;21.10;65.30;;;;;;5057520;28;20048;-82
2023/06/27 08:45:52;;;;;;;4.68;0.93;;;21.30;65.90;;;;;;5057471;28;20049;-82
2023/06/27 08:48:18;;;;;;;4.63;1.10;;;21.30;64.50;;;;;;5073016;28;20047;-82
2023/06/27 08:50:44;;;;;;;3.47;0.80;;;21.40;63.00;;;;;;5068801;28;20128;-81
2023/06/27 08:53:14;;;;;;;5.82;1.20;;;21.40;64.60;;;;;;5066853;28;20119;-83
2023/06/27 08:56:05;;;;;;;5.55;0.85;;;21.50;62.30;;;;;;5076412;28;20049;-82
2023/06/27 08:58:46;;;;;;;5.90;0.82;;;21.60;61.80;;;;;;5074212;28;20123;-82
2023/06/27 09:01:11;;;;;;;8.68;1.25;;;21.60;61.00;;;;;;5065757;28;20048;-81
2023/06/27 09:03:37;;;;;;;5.80;1.10;;;21.70;61.80;;;;;;5057282;28;20052;-82
2023/06/27 09:06:05;;;;;;;5.72;0.90;;;21.70;62.60;;;;;;5062222;28;20044;-81
2023/06/27 09:08:32;;;;;;;7.85;0.93;;;21.80;62.50;;;;;;5076140;28;20044;-81
2023/06/27 09:10:59;;;;;;;5.68;1.10;;;21.90;63.60;;;;;;5075784;28;20041;-81
2023/06/27 09:13:26;;;;;;;6.05;1.00;;;21.90;63.40;;;;;;5075621;28;20052;-81
2023/06/27 09:15:52;;;;;;;7.50;0.98;;;22.00;62.10;;;;;;5075158;28;20082;-82
2023/06/27 09:18:17;;;;;;;7.82;1.23;;;22.00;61.20;;;;;;5059387;28;20375;-82
2023/06/27 09:20:44;;;;;;;6.63;1.00;;;22.10;61.20;;;;;;5075849;28;20063;-81
2023/06/27 09:23:11;;;;;;;6.80;1.20;;;22.20;62.00;;;;;;5070709;28;20055;-81
2023/06/27 09:25:36;;;;;;;7.38;1.17;;;22.20;62.70;;;;;;5036761;28;20471;-81
2023/06/27 09:28:18;;;;;;;8.98;1.20;;;22.20;62.50;;;;;;5046037;28;20064;-81
2023/06/27 09:30:57;;;;;;;3.38;0.80;;;22.30;61.40;;;;;;5057067;28;20494;-82
2023/06/27 09:33:23;;;;;;;4.95;1.10;;;22.30;63.40;;;;;;5036336;28;20041;-81
2023/06/27 09:35:50;;;;;;;7.82;1.40;;;22.40;64.00;;;;;;5035669;28;20053;-82
2023/06/27 09:38:18;;;;;;;4.75;0.90;;;22.40;62.40;;;;;;5036474;28;20041;-82
2023/06/27 09:40:44;;;;;;;6.32;0.90;;;22.40;62.90;;;;;;5051941;28;20045;-81
2023/06/27 09:43:11;;;;;;;9.55;1.20;;;22.50;63.00;;;;;;5048979;28;20090;-81
2023/06/27 09:45:37;;;;;;;5.97;1.17;;;22.50;63.20;;;;;;5056136;28;20044;-81
2023/06/27 09:48:07;;;;;;;5.75;1.00;;;22.60;63.50;;;;;;5056121;28;20049;-81
2023/06/27 09:50:33;;;;;;;6.88;1.02;;;22.60;64.40;;;;;;5038165;28;20059;-81
2023/06/27 09:53:00;;;;;;;7.53;1.17;;;22.70;63.30;;;;;;5055944;28;20052;-81
2023/06/27 09:55:27;;;;;;;7.15;1.15;;;22.70;62.80;;;;;;5054971;28;20047;-82
2023/06/27 09:57:53;;;;;;;4.72;1.00;;;22.60;63.60;;;;;;5057240;28;20487;-80
2023/06/27 10:00:21;;;;;;;5.72;1.20;;;22.70;65.10;;;;;;5056135;28;20075;-82
2023/06/27 10:02:50;;;;;;;5.22;1.00;;;22.70;64.20;;;;;;5056100;28;20071;-82
2023/06/27 10:05:17;;;;;;;6.20;1.10;;;22.80;63.50;;;;;;5056558;28;20037;-81
2023/06/27 10:07:44;;;;;;;7.30;1.40;;;22.80;64.50;;;;;;5055596;28;20065;-82
2023/06/27 10:10:10;;;;;;;8.50;1.30;;;22.90;64.80;;;;;;5062411;28;20052;-81
2023/06/27 10:12:36;;;;;;;5.65;0.90;;;23.00;65.30;;;;;;5058828;28;20052;-81
2023/06/27 10:15:03;;;;;;;6.88;1.23;;;23.00;66.00;;;;;;5057094;28;20037;-80
2023/06/27 10:17:29;;;;;;;5.60;1.05;;;23.00;65.50;;;;;;5055721;28;20052;-80
2023/06/27 10:19:56;;;;;;;4.45;0.80;;;23.10;64.70;;;;;;5054243;28;20041;-81
2023/06/27 10:22:28;;;;;;;6.70;1.20;;;23.10;66.50;;;;;;5055696;28;20060;-81
2023/06/27 10:24:59;;;;;;;4.35;1.20;;;23.10;63.80;;;;;;5071030;28;20486;-80
2023/06/27 10:27:25;;;;;;;7.97;1.35;;;23.10;64.30;;;;;;5055607;28;20471;-80
2023/06/27 10:29:51;;;;;;;6.85;1.30;;;23.20;63.70;;;;;;5057255;28;20036;-80
2023/06/27 10:32:18;;;;;;;6.13;1.30;;;23.20;65.70;;;;;;5054935;28;20052;-80
2023/06/27 10:34:44;;;;;;;8.30;1.48;;;23.20;63.80;;;;;;5055389;28;20047;-80
2023/06/27 10:37:19;;;;;;;4.90;1.02;;;23.30;63.90;;;;;;5068713;28;20132;-80
2023/06/27 10:39:55;;;;;;;5.00;1.17;;;23.30;64.30;;;;;;5049185;28;20070;-80
2023/06/27 10:42:20;;;;;;;4.93;1.00;;;23.30;63.00;;;;;;5042597;28;20049;-80
2023/06/27 10:45:10;;;;;;;7.95;1.02;;;23.30;64.50;;;;;;5057395;28;20422;-79
2023/06/27 10:47:42;;;;;;;5.57;1.10;;;23.30;62.50;;;;;;5040820;28;20056;-80
2023/06/27 10:50:13;;;;;;;6.30;1.10;;;23.50;64.20;;;;;;5055045;28;20487;-80
2023/06/27 10:52:40;;;;;;;5.72;1.20;;;23.60;62.30;;;;;;5055480;28;20048;-81
2023/06/27 10:55:21;;;;;;;4.55;1.20;;;23.60;62.10;;;;;;5055050;28;20072;-81
2023/06/27 10:58:02;;;;;;;5.63;1.00;;;23.70;61.00;;;;;;5053938;28;20048;-81
2023/06/27 11:00:33;;;;;;;5.22;1.30;;;23.80;58.80;;;;;;5053332;28;20074;-81
2023/06/27 11:03:03;;;;;;;6.57;0.90;;;23.80;58.60;;;;;;5053674;28;20086;-82
2023/06/27 11:05:49;;;;;;;5.55;1.25;;;23.80;58.10;;;;;;5054547;28;20430;-81
2023/06/27 11:08:17;;;;;;;6.93;1.20;;;23.80;59.40;;;;;;5054264;28;20064;-81
2023/06/27 11:11:25;;;;;;;4.22;1.13;;;23.80;59.70;;;;;;5053615;28;20516;-81
2023/06/27 11:14:03;;;;;;;4.40;1.10;;;23.90;58.70;;;;;;5043788;28;20049;-81
2023/06/27 11:16:31;;;;;;;7.25;1.25;;;23.90;59.30;;;;;;5040633;28;20049;-82
2023/06/27 11:18:57;;;;;;;4.15;0.95;;;24.00;58.40;;;;;;5054266;28;20052;-82
2023/06/27 11:21:23;;;;;;;5.50;1.17;;;24.00;57.80;;;;;;5052994;28;20047;-81
2023/06/27 11:23:50;;;;;;;5.78;1.15;;;24.00;57.60;;;;;;5054197;28;20041;-81
2023/06/27 11:26:16;;;;;;;6.07;1.20;;;23.90;57.80;;;;;;5054364;28;20107;-82
2023/06/27 11:28:45;;;;;;;6.63;1.10;;;23.90;58.60;;;;;;5074405;28;20041;-81
2023/06/27 11:31:10;;;;;;;5.53;1.05;;;23.90;58.30;;;;;;5072337;28;20567;-79
2023/06/27 11:33:38;;;;;;;6.50;1.10;;;23.90;59.90;;;;;;5064832;28;20072;-80
2023/06/27 11:36:07;;;;;;;6.82;1.00;;;23.90;59.60;;;;;;5054032;28;20052;-79
2023/06/27 11:38:33;;;;;;;4.47;1.10;;;24.00;59.90;;;;;;5052876;28;20573;-79
2023/06/27 11:40:59;;;;;;;5.65;1.13;;;24.00;59.80;;;;;;5056513;28;20136;-79
2023/06/27 11:43:25;;;;;;;6.65;1.33;;;24.00;60.10;;;;;;5070308;28;20098;-79
2023/06/27 11:45:52;;;;;;;7.88;1.40;;;24.10;59.40;;;;;;5062363;28;20042;-79
2023/06/27 11:48:18;;;;;;;3.40;0.85;;;24.10;59.30;;;;;;5073897;28;20406;-79
2023/06/27 11:51:07;;;;;;;6.63;1.20;;;24.10;60.10;;;;;;5071831;28;20188;-79
2023/06/27 11:53:35;;;;;;;5.57;1.10;;;24.10;59.50;;;;;;5074007;28;20076;-79
2023/06/27 11:56:01;;;;;;;5.97;1.02;;;24.10;59.90;;;;;;5074391;28;20074;-79
2023/06/27 11:58:32;;;;;;;5.63;1.05;;;24.10;58.30;;;;;;5071534;28;20040;-79
2023/06/27 12:01:00;;;;;;;7.28;1.42;;;24.10;58.30;;;;;;5053269;28;20064;-78
2023/06/27 12:03:30;;;;;;;7.97;1.30;;;24.00;58.10;;;;;;5053980;28;20086;-79
2023/06/27 12:05:57;;;;;;;6.05;1.25;;;24.00;60.70;;;;;;5053804;28;20129;-80
2023/06/27 12:08:29;;;;;;;5.22;1.25;;;24.00;59.70;;;;;;5085019;28;20119;-79
2023/06/27 12:10:57;;;;;;;5.88;0.90;;;24.00;58.40;;;;;;5052855;28;20053;-79
2023/06/27 12:13:35;;;;;;;7.63;1.27;;;24.00;59.60;;;;;;5052812;28;20110;-79
2023/06/27 12:16:02;;;;;;;6.75;1.30;;;23.90;59.40;;;;;;5062733;28;20049;-79
2023/06/27 12:18:28;;;;;;;6.78;1.20;;;23.90;59.60;;;;;;5052305;28;20187;-79
2023/06/27 12:20:55;;;;;;;6.43;1.20;;;23.90;57.90;;;;;;5054923;28;20530;-80
2023/06/27 12:23:20;;;;;;;4.85;1.30;;;23.90;57.40;;;;;;5036543;28;20130;-79
2023/06/27 12:25:47;;;;;;;11.95;1.38;;;23.90;58.20;;;;;;5054003;28;20092;-78
2023/06/27 12:28:13;;;;;;;5.85;1.30;;;23.80;58.20;;;;;;5061635;28;20052;-78
2023/06/27 12:30:39;;;;;;;6.15;1.10;;;23.80;59.60;;;;;;5057533;28;20044;-78
2023/06/27 12:33:06;;;;;;;4.93;1.10;;;23.80;59.70;;;;;;5053042;28;20078;-80
2023/06/27 12:35:32;;;;;;;5.78;1.17;;;23.90;59.90;;;;;;5049406;28;20045;-81
2023/06/27 12:37:58;;;;;;;4.55;0.90;;;23.90;59.20;;;;;;5052449;28;20045;-82
2023/06/27 12:40:25;;;;;;;4.28;1.00;;;23.90;58.30;;;;;;5053982;28;20055;-80
2023/06/27 12:42:54;;;;;;;4.70;0.90;;;24.00;60.00;;;;;;5052318;28;20119;-79
2023/06/27 12:45:21;;;;;;;5.22;0.98;;;24.00;62.30;;;;;;5053793;28;20044;-78
2023/06/27 12:47:47;;;;;;;6.57;1.08;;;24.10;63.60;;;;;;5035667;28;20073;-78